Dades meteomassalio
Diari Summary for Marc 18, 2017 Units:  English    Metric   Both
« Previous Day
Next Day »
Diari Semanal Mensual Anual Personalitzat
  Maxima: Minima: Mijana:
Temperatura: TemperatureC °F 2.2 °F 11.8 °F
Rosada: DewpointC °F 0.6 °F 5.5 °F
Humitat: Humidity % 39 % 68 %
Velocitat del vent: WindSpeedKMH mph 0.0 mph 3 mph
Racha vent: WindSpeedGustKMH mph - -
Vent:- - WNW
Pressio: PressurehPa in 1018.5 in -
Pluja: 0.0 in    
Historical Graphs
 
 
Tabular Data for Marc 18, 2017
Time Temperature Dew Point Pressure Wind Wind Speed Wind Gust Humidity Rainfall Rate (Hourly) solar Conditions
TemperatureC °F DewpointC °F PressurehPa in Calm     Humidity % HourlyPrecipMM in SolarRadiationWatts/m^2 W/m2 Conditions
00:03 5.6 °F 2.8 °F 1022.9 in Calm     82 % 0.0 in 0.0 W/m2 CLR
00:08 5.6 °F 2.9 °F 1022.9 in Calm     83 % 0.0 in 0.0 W/m2 CLR
00:13 5.6 °F 2.9 °F 1022.6 in Calm     83 % 0.0 in 0.0 W/m2 CLR
00:18 5.5 °F 2.8 °F 1022.6 in Calm     83 % 0.0 in 0.0 W/m2 CLR
00:23 5.4 °F 2.9 °F 1022.6 in Calm     84 % 0.0 in 0.0 W/m2 CLR
00:28 5.7 °F 3.1 °F 1022.9 in Calm     83 % 0.0 in 0.0 W/m2 CLR
00:33 5.5 °F 2.7 °F 1022.6 in Calm     82 % 0.0 in 0.0 W/m2 CLR
00:38 5.2 °F 2.6 °F 1022.6 in Calm     83 % 0.0 in 0.0 W/m2 CLR
00:43 5.1 °F 2.6 °F 1022.6 in Calm     84 % 0.0 in 0.0 W/m2 CLR
00:48 5.0 °F 2.5 °F 1022.9 in Calm     84 % 0.0 in 0.0 W/m2 CLR
00:53 4.9 °F 2.4 °F 1022.9 in Calm     84 % 0.0 in 0.0 W/m2 CLR
00:58 5.0 °F 2.5 °F 1022.9 in Calm     84 % 0.0 in 0.0 W/m2 CLR
01:03 5.0 °F 2.5 °F 1022.9 in Calm     84 % 0.0 in 0.0 W/m2 CLR
01:08 5.0 °F 2.5 °F 1022.9 in Calm     84 % 0.0 in 0.0 W/m2 CLR
01:13 5.0 °F 2.5 °F 1022.9 in Calm     84 % 0.0 in 0.0 W/m2 CLR
01:18 5.0 °F 2.5 °F 1022.9 in Calm     84 % 0.0 in 0.0 W/m2 CLR
01:23 5.2 °F 2.7 °F 1022.9 in Calm     84 % 0.0 in 0.0 W/m2 CLR
01:28 5.4 °F 2.6 °F 1022.9 in Calm     82 % 0.0 in 0.0 W/m2 CLR
01:33 5.2 °F 2.4 °F 1022.9 in Calm     82 % 0.0 in 0.0 W/m2 CLR
01:38 4.9 °F 2.1 °F 1022.9 in Calm     82 % 0.0 in 0.0 W/m2 CLR
01:43 4.7 °F 2.1 °F 1022.9 in Calm     83 % 0.0 in 0.0 W/m2 CLR
01:48 4.6 °F 2.1 °F 1022.9 in Calm     84 % 0.0 in 0.0 W/m2 CLR
01:53 4.7 °F 2.2 °F 1022.9 in Calm     84 % 0.0 in 0.0 W/m2 CLR
01:54 4.7 °F 2.2 °F 1022.9 in Calm     84 % 0.0 in 0.0 W/m2 CLR
01:59 4.6 °F 2.1 °F 1022.9 in Calm     84 % 0.0 in 0.0 W/m2 CLR
02:04 4.4 °F 2.0 °F 1023.2 in Calm     84 % 0.0 in 0.0 W/m2 CLR
02:09 4.3 °F 1.9 °F 1022.9 in Calm     84 % 0.0 in 0.0 W/m2 CLR
02:14 4.3 °F 2.0 °F 1023.2 in Calm     85 % 0.0 in 0.0 W/m2 CLR
02:19 4.2 °F 1.9 °F 1023.2 in Calm     85 % 0.0 in 0.0 W/m2 CLR
02:24 4.0 °F 1.9 °F 1023.2 in Calm     86 % 0.0 in 0.0 W/m2 CLR
02:29 3.9 °F 1.8 °F 1023.2 in Calm     86 % 0.0 in 0.0 W/m2 CLR
02:34 4.0 °F 2.1 °F 1023.2 in Calm     87 % 0.0 in 0.0 W/m2 CLR
02:39 4.1 °F 1.9 °F 1023.2 in Calm     86 % 0.0 in 0.0 W/m2 CLR
02:44 3.9 °F 1.8 °F 1023.2 in Calm     86 % 0.0 in 0.0 W/m2 CLR
02:49 3.9 °F 1.8 °F 1023.2 in Calm     86 % 0.0 in 0.0 W/m2 CLR
02:54 3.8 °F 1.7 °F 1023.2 in Calm     86 % 0.0 in 0.0 W/m2 CLR
02:59 3.7 °F 1.6 °F 1023.2 in Calm     86 % 0.0 in 0.0 W/m2 CLR
03:04 3.6 °F 1.7 °F 1023.2 in Calm     87 % 0.0 in 0.0 W/m2 CLR
03:09 3.6 °F 1.6 °F 1023.2 in Calm     87 % 0.0 in 0.0 W/m2 CLR
03:14 3.5 °F 1.6 °F 1023.2 in Calm     87 % 0.0 in 0.0 W/m2 CLR
03:19 3.5 °F 1.7 °F 1023.2 in Calm     88 % 0.0 in 0.0 W/m2 CLR
03:24 3.4 °F 1.7 °F 1023.2 in Calm     88 % 0.0 in 0.0 W/m2 CLR
03:29 3.4 °F 1.7 °F 1023.2 in Calm     88 % 0.0 in 0.0 W/m2 CLR
03:34 3.3 °F 1.6 °F 1023.2 in Calm     88 % 0.0 in 0.0 W/m2 CLR
03:39 3.3 °F 1.5 °F 1023.2 in Calm     88 % 0.0 in 0.0 W/m2 CLR
03:44 3.2 °F 1.4 °F 1023.2 in Calm     88 % 0.0 in 0.0 W/m2 CLR
03:49 3.2 °F 1.4 °F 1022.9 in Calm     88 % 0.0 in 0.0 W/m2 CLR
03:54 3.2 °F 1.4 °F 1022.9 in Calm     88 % 0.0 in 0.0 W/m2 CLR
03:59 3.1 °F 1.3 °F 1022.9 in Calm     88 % 0.0 in 0.0 W/m2 CLR
04:04 2.9 °F 1.2 °F 1022.9 in Calm     88 % 0.0 in 0.0 W/m2 CLR
04:09 2.8 °F 1.1 °F 1022.9 in Calm     88 % 0.0 in 0.0 W/m2 CLR
04:14 2.8 °F 1.2 °F 1022.6 in Calm     89 % 0.0 in 0.0 W/m2 CLR
04:19 3.0 °F 1.4 °F 1022.9 in Calm     89 % 0.0 in 0.0 W/m2 CLR
04:24 3.0 °F 1.4 °F 1022.9 in Calm     89 % 0.0 in 0.0 W/m2 CLR
04:29 3.0 °F 1.4 °F 1022.9 in Calm     89 % 0.0 in 0.0 W/m2 CLR
04:34 2.9 °F 1.3 °F 1022.9 in Calm     89 % 0.0 in 0.0 W/m2 CLR
04:40 2.9 °F 1.3 °F 1022.9 in Calm     89 % 0.0 in 0.0 W/m2 CLR
04:45 3.0 °F 1.4 °F 1022.9 in Calm     89 % 0.0 in 0.0 W/m2 CLR
04:50 3.1 °F 1.5 °F 1022.9 in Calm     89 % 0.0 in 0.0 W/m2 CLR
04:55 3.2 °F 1.6 °F 1022.9 in Calm     89 % 0.0 in 0.0 W/m2 CLR
05:00 3.1 °F 1.3 °F 1022.9 in Calm     88 % 0.0 in 0.0 W/m2 CLR
05:05 3.0 °F 1.4 °F 1022.9 in Calm     89 % 0.0 in 0.0 W/m2 CLR
05:10 3.1 °F 1.4 °F 1022.9 in Calm     89 % 0.0 in 0.0 W/m2 CLR
05:15 3.1 °F 1.5 °F 1022.9 in Calm     89 % 0.0 in 0.0 W/m2 CLR
05:21 3.2 °F 1.6 °F 1022.9 in Calm     89 % 0.0 in 0.0 W/m2 CLR
05:26 3.1 °F 1.3 °F 1022.9 in Calm     88 % 0.0 in 0.0 W/m2 CLR
05:31 3.0 °F 1.4 °F 1023.2 in Calm     89 % 0.0 in 0.0 W/m2 CLR
05:36 2.9 °F 1.3 °F 1023.2 in Calm     89 % 0.0 in 0.0 W/m2 CLR
05:41 2.8 °F 1.2 °F 1023.2 in Calm     89 % 0.0 in 0.0 W/m2 CLR
05:46 2.7 °F 1.1 °F 1023.2 in Calm     89 % 0.0 in 0.0 W/m2 CLR
05:51 2.7 °F 1.1 °F 1023.2 in Calm     89 % 0.0 in 0.0 W/m2 CLR
05:56 2.7 °F 1.1 °F 1023.2 in Calm     89 % 0.0 in 0.0 W/m2 CLR
06:01 2.7 °F 1.1 °F 1023.2 in Calm     89 % 0.0 in 0.0 W/m2 CLR
06:06 2.7 °F 1.1 °F 1023.2 in Calm     89 % 0.0 in 0.0 W/m2 CLR
06:11 2.7 °F 1.1 °F 1023.2 in Calm     89 % 0.0 in 0.0 W/m2 CLR
06:16 2.6 °F 1.0 °F 1023.2 in Calm     89 % 0.0 in 0.0 W/m2 CLR
06:21 2.5 °F 0.9 °F 1023.2 in Calm     89 % 0.0 in 0.0 W/m2 CLR
06:26 2.4 °F 0.8 °F 1023.6 in Calm     89 % 0.0 in 0.0 W/m2 CLR
06:31 2.4 °F 0.9 °F 1023.6 in Calm     90 % 0.0 in 0.0 W/m2 CLR
06:36 2.4 °F 0.8 °F 1023.6 in Calm     89 % 0.0 in 0.0 W/m2 CLR
06:41 2.3 °F 0.7 °F 1023.6 in Calm     89 % 0.0 in 0.0 W/m2 CLR
06:46 2.2 °F 0.6 °F 1023.9 in Calm     89 % 0.0 in 0.0 W/m2 CLR
06:51 2.2 °F 0.7 °F 1023.9 in Calm     90 % 0.0 in 0.0 W/m2 CLR
06:56 2.2 °F 0.8 °F 1023.9 in Calm     90 % 0.0 in 0.0 W/m2 CLR
07:01 2.2 °F 0.8 °F 1023.9 in Calm     90 % 0.0 in 0.0 W/m2 OVC
07:06 2.2 °F 0.7 °F 1023.9 in Calm     90 % 0.0 in 5.0 W/m2 OVC
07:11 2.2 °F 0.7 °F 1024.3 in Calm     90 % 0.0 in 9.0 W/m2 BKN
07:16 2.2 °F 0.7 °F 1024.3 in Calm     90 % 0.0 in 12.0 W/m2 BKN
07:21 2.2 °F 0.7 °F 1024.3 in Calm     90 % 0.0 in 16.0 W/m2 BKN
07:26 2.3 °F 0.8 °F 1024.3 in Calm     90 % 0.0 in 19.0 W/m2 BKN
07:31 2.4 °F 1.1 °F 1024.6 in Calm     91 % 0.0 in 23.0 W/m2 BKN
07:36 2.6 °F 1.3 °F 1024.6 in Calm     91 % 0.0 in 28.0 W/m2 BKN
07:41 2.8 °F 1.4 °F 1024.6 in Calm     91 % 0.0 in 42.0 W/m2 BKN
07:46 2.9 °F 1.4 °F 1024.6 in Calm     90 % 0.0 in 47.0 W/m2 SCT
07:51 3.2 °F 1.7 °F 1024.9 in Calm     90 % 0.0 in 70.0 W/m2 FEW
07:56 3.4 °F 1.9 °F 1024.6 in Calm     90 % 0.0 in 84.0 W/m2 FEW
08:01 3.7 °F 2.2 °F 1024.6 in Calm     90 % 0.0 in 97.0 W/m2 CLR
08:06 4.0 °F 2.3 °F 1024.6 in Calm     89 % 0.0 in 111.0 W/m2 CLR
08:11 4.3 °F 2.6 °F 1024.6 in Calm     89 % 0.0 in 130.0 W/m2 CLR
08:16 4.7 °F 2.9 °F 1024.6 in Calm     88 % 0.0 in 146.0 W/m2 CLR
08:21 5.1 °F 3.1 °F 1024.3 in Calm     87 % 0.0 in 162.0 W/m2 CLR
08:26 5.4 °F 3.3 °F 1024.6 in Calm     86 % 0.0 in 179.0 W/m2 CLR
08:31 5.9 °F 3.6 °F 1024.6 in Calm     85 % 0.0 in 197.0 W/m2 CLR
08:36 6.3 °F 3.6 °F 1024.3 in Calm     83 % 0.0 in 216.0 W/m2 CLR
08:41 6.7 °F 4.1 °F 1024.3 in Calm     83 % 0.0 in 227.0 W/m2 CLR
08:46 7.2 °F 4.0 °F 1024.3 in Calm     80 % 0.0 in 234.0 W/m2 CLR
08:51 7.6 °F 3.8 °F 1024.3 in Calm     77 % 0.0 in 258.0 W/m2 CLR
08:56 8.1 °F 4.3 °F 1024.3 in Calm     77 % 0.0 in 232.0 W/m2 CLR
09:01 8.6 °F 4.4 °F 1024.3 in Calm     75 % 0.0 in 281.0 W/m2 CLR
09:06 9.1 °F 4.7 °F 1024.3 in Calm     74 % 0.0 in 306.0 W/m2 CLR
09:11 9.7 °F 5.1 °F 1024.3 in Calm     73 % 0.0 in 322.0 W/m2 CLR
09:16 10.3 °F 5.1 °F 1024.3 in Calm     70 % 0.0 in 338.0 W/m2 CLR
09:21 10.7 °F 5.4 °F 1024.3 in Calm     70 % 0.0 in 352.0 W/m2 CLR
09:26 11.2 °F 5.7 °F 1024.3 in Calm     69 % 0.0 in 367.0 W/m2 CLR
09:31 11.7 °F 5.7 °F 1024.3 in Calm     67 % 0.0 in 381.0 W/m2 CLR
09:36 12.1 °F 5.4 °F 1023.9 in Calm     64 % 0.0 in 397.0 W/m2 CLR
09:41 12.4 °F 6.7 °F 1023.9 in Calm     68 % 0.0 in 413.0 W/m2 CLR
09:46 12.9 °F 6.7 °F 1023.9 in Calm     66 % 0.0 in 431.0 W/m2 CLR
09:51 13.4 °F 7.2 °F 1023.9 in WNW 13.0 mph 13.0 mph 66 % 0.0 in 443.0 W/m2 CLR
09:56 13.7 °F 7.2 °F 1023.9 in West 13.0 mph 13.0 mph 65 % 0.0 in 457.0 W/m2 CLR
10:01 13.8 °F 7.6 °F 1023.6 in NW 4.8 mph 4.8 mph 66 % 0.0 in 471.0 W/m2 CLR
10:06 14.1 °F 7.6 °F 1023.6 in NW 7.4 mph 7.4 mph 65 % 0.0 in 485.0 W/m2 CLR
10:11 14.2 °F 7.5 °F 1023.6 in WNW 7.4 mph 7.4 mph 64 % 0.0 in 497.0 W/m2 CLR
10:16 14.4 °F 7.4 °F 1023.6 in West 16.7 mph 16.7 mph 63 % 0.0 in 510.0 W/m2 CLR
10:21 14.5 °F 7.8 °F 1023.6 in WNW 12.9 mph 12.9 mph 64 % 0.0 in 522.0 W/m2 CLR
10:26 14.7 °F 7.5 °F 1023.6 in NW 11.3 mph 11.3 mph 62 % 0.0 in 538.0 W/m2 CLR
10:31 14.8 °F 7.8 °F 1023.6 in NW 16.7 mph 16.7 mph 63 % 0.0 in 548.0 W/m2 CLR
10:36 14.7 °F 7.7 °F 1023.6 in NW 13.0 mph 13.0 mph 63 % 0.0 in 559.0 W/m2 CLR
10:39 14.8 °F 8.1 °F 1023.6 in NW 17.7 mph 17.7 mph 64 % 0.0 in 566.0 W/m2 CLR
10:44 14.7 °F 7.5 °F 1023.6 in NNW 14.8 mph 14.8 mph 62 % 0.0 in 575.0 W/m2 CLR
10:49 14.6 °F 7.4 °F 1023.6 in NW 18.5 mph 18.5 mph 62 % 0.0 in 587.0 W/m2 CLR
10:54 14.5 °F 7.3 °F 1023.6 in WNW 11.1 mph 11.1 mph 62 % 0.0 in 594.0 W/m2 CLR
10:59 14.6 °F 7.7 °F 1023.6 in NW 9.7 mph 9.7 mph 63 % 0.0 in 610.0 W/m2 CLR
11:04 14.8 °F 7.6 °F 1023.6 in NW 14.8 mph 14.8 mph 62 % 0.0 in 622.0 W/m2 CLR
11:09 14.8 °F 7.8 °F 1023.6 in WNW 9.3 mph 9.3 mph 63 % 0.0 in 631.0 W/m2 CLR
11:14 15.0 °F 7.6 °F 1023.2 in NW 7.4 mph 7.4 mph 61 % 0.0 in 642.0 W/m2 CLR
11:20 15.3 °F 7.8 °F 1023.2 in NW 11.1 mph 11.1 mph 61 % 0.0 in 649.0 W/m2 CLR
11:25 15.4 °F 8.4 °F 1023.2 in NW 9.7 mph 9.7 mph 63 % 0.0 in 659.0 W/m2 CLR
11:30 15.4 °F 7.7 °F 1023.2 in North 9.3 mph 9.3 mph 60 % 0.0 in 666.0 W/m2 CLR
11:35 15.6 °F 8.1 °F 1022.9 in Calm     61 % 0.0 in 675.0 W/m2 CLR
11:40 16.2 °F 8.4 °F 1022.9 in Calm     60 % 0.0 in 684.0 W/m2 CLR
11:45 16.6 °F 8.5 °F 1022.6 in NNW 3.7 mph   59 % 0.0 in 691.0 W/m2 CLR
11:50 16.7 °F 8.1 °F 1022.6 in NW 5.6 mph 5.6 mph 57 % 0.0 in 696.0 W/m2 CLR
11:55 16.6 °F 8.6 °F 1022.6 in Calm     59 % 0.0 in 698.0 W/m2 CLR
12:00 16.8 °F 8.0 °F 1022.6 in Calm     56 % 0.0 in 708.0 W/m2 CLR
12:05 16.9 °F 7.5 °F 1022.6 in SW 8.0 mph 8.0 mph 54 % 0.0 in 715.0 W/m2 CLR
12:10 16.9 °F 7.6 °F 1022.6 in Calm     54 % 0.0 in 721.0 W/m2 CLR
12:15 17.2 °F 7.8 °F 1022.2 in Calm     54 % 0.0 in 729.0 W/m2 CLR
12:20 17.4 °F 7.8 °F 1022.2 in Calm     53 % 0.0 in 733.0 W/m2 CLR
12:25 17.8 °F 8.1 °F 1022.2 in Calm     53 % 0.0 in 737.0 W/m2 CLR
12:30 17.9 °F 7.9 °F 1022.2 in WNW 7.4 mph 7.4 mph 52 % 0.0 in 740.0 W/m2 CLR
12:35 18.1 °F 8.3 °F 1021.9 in NW 7.4 mph 7.4 mph 53 % 0.0 in 742.0 W/m2 CLR
12:40 18.4 °F 8.1 °F 1021.9 in WNW 13.0 mph 13.0 mph 51 % 0.0 in 742.0 W/m2 CLR
12:45 18.6 °F 8.0 °F 1021.9 in WNW 7.4 mph   50 % 0.0 in 749.0 W/m2 CLR
12:50 18.7 °F 8.9 °F 1021.9 in NNW 13.0 mph 13.0 mph 53 % 0.0 in 751.0 W/m2 CLR
12:55 18.8 °F 8.1 °F 1021.9 in WSW 5.6 mph 5.6 mph 50 % 0.0 in 749.0 W/m2 CLR
13:00 18.9 °F 8.2 °F 1021.9 in NNW 7.4 mph 7.4 mph 50 % 0.0 in 749.0 W/m2 CLR
13:05 19.1 °F 8.1 °F 1021.6 in NNE 1.9 mph 1.9 mph 49 % 0.0 in 752.0 W/m2 CLR
13:10 19.3 °F 7.7 °F 1021.6 in Calm     47 % 0.0 in 758.0 W/m2 CLR
13:15 19.5 °F 7.6 °F 1021.6 in NW 3.7 mph   46 % 0.0 in 756.0 W/m2 CLR
13:20 19.5 °F 7.9 °F 1021.6 in NW 3.7 mph   47 % 0.0 in 751.0 W/m2 CLR
13:25 19.7 °F 8.7 °F 1021.6 in NW 11.3 mph 11.3 mph 49 % 0.0 in 751.0 W/m2 CLR
13:30 19.7 °F 8.7 °F 1021.6 in Calm     49 % 0.0 in 752.0 W/m2 CLR
13:35 20.0 °F 8.0 °F 1021.2 in SW 11.3 mph 11.3 mph 46 % 0.0 in 754.0 W/m2 CLR
13:40 20.3 °F 8.3 °F 1021.2 in West 9.7 mph 9.7 mph 46 % 0.0 in 745.0 W/m2 CLR
13:45 20.4 °F 8.1 °F 1021.2 in Calm     45 % 0.0 in 745.0 W/m2 CLR
13:50 20.5 °F 8.5 °F 1020.9 in North 11.1 mph 11.1 mph 46 % 0.0 in 744.0 W/m2 CLR
13:55 20.3 °F 7.3 °F 1020.9 in Calm     43 % 0.0 in 747.0 W/m2 CLR
14:00 20.4 °F 7.8 °F 1020.9 in Calm     44 % 0.0 in 754.0 W/m2 CLR
14:05 20.4 °F 7.7 °F 1020.9 in North 5.6 mph 5.6 mph 44 % 0.0 in 759.0 W/m2 CLR
14:10 20.4 °F 7.7 °F 1020.9 in WNW 11.1 mph 11.1 mph 44 % 0.0 in 561.0 W/m2 CLR
14:15 20.3 °F 7.3 °F 1020.9 in West 7.4 mph   43 % 0.0 in 381.0 W/m2 CLR
14:16 20.3 °F 7.3 °F 1020.9 in West 7.4 mph   43 % 0.0 in 381.0 W/m2 CLR
14:21 20.6 °F 8.3 °F 1020.5 in North 11.1 mph 11.1 mph 45 % 0.0 in 754.0 W/m2 CLR
14:26 20.6 °F 7.9 °F 1020.5 in Calm     44 % 0.0 in 717.0 W/m2 CLR
14:31 20.9 °F 7.5 °F 1020.5 in NE 7.4 mph 7.4 mph 42 % 0.0 in 708.0 W/m2 CLR
14:36 21.2 °F 9.1 °F 1020.5 in NW 12.9 mph 12.9 mph 46 % 0.0 in 696.0 W/m2 CLR
14:41 21.1 °F 7.3 °F 1020.5 in WNW 11.1 mph 11.1 mph 41 % 0.0 in 693.0 W/m2 CLR
14:46 20.9 °F 8.6 °F 1020.5 in North 14.8 mph 14.8 mph 45 % 0.0 in 682.0 W/m2 CLR
14:51 20.7 °F 8.3 °F 1020.2 in North 5.6 mph 5.6 mph 45 % 0.0 in 664.0 W/m2 CLR
14:56 20.8 °F 9.4 °F 1020.2 in WNW 5.6 mph 5.6 mph 48 % 0.0 in 663.0 W/m2 CLR
15:01 21.1 °F 9.0 °F 1020.2 in NNW 9.7 mph 9.7 mph 46 % 0.0 in 661.0 W/m2 CLR
15:06 20.8 °F 8.7 °F 1020.2 in NW 9.3 mph   46 % 0.0 in 649.0 W/m2 CLR
15:11 20.9 °F 8.8 °F 1019.9 in Calm     46 % 0.0 in 633.0 W/m2 CLR
15:16 21.2 °F 8.4 °F 1019.9 in WSW 5.6 mph 5.6 mph 44 % 0.0 in 628.0 W/m2 CLR
15:21 21.3 °F 8.2 °F 1019.9 in North 1.9 mph   43 % 0.0 in 605.0 W/m2 CLR
15:26 21.4 °F 8.6 °F 1019.9 in NW 5.6 mph 5.6 mph 44 % 0.0 in 592.0 W/m2 CLR
15:31 21.3 °F 8.2 °F 1019.9 in North 6.4 mph 6.4 mph 43 % 0.0 in 598.0 W/m2 CLR
15:36 21.4 °F 8.6 °F 1019.9 in North 11.3 mph 11.3 mph 44 % 0.0 in 591.0 W/m2 CLR
15:41 21.4 °F 8.3 °F 1019.9 in NNW 9.3 mph 9.3 mph 43 % 0.0 in 580.0 W/m2 CLR
15:46 21.6 °F 8.8 °F 1019.9 in NNW 9.3 mph 9.3 mph 44 % 0.0 in 568.0 W/m2 CLR
15:51 21.7 °F 8.2 °F 1019.5 in North 16.7 mph 16.7 mph 42 % 0.0 in 555.0 W/m2 CLR
15:56 21.7 °F 8.6 °F 1019.5 in North 9.3 mph 9.3 mph 43 % 0.0 in 540.0 W/m2 CLR
16:01 21.7 °F 7.8 °F 1019.5 in WNW 9.7 mph 9.7 mph 41 % 0.0 in 527.0 W/m2 CLR
16:06 21.7 °F 7.9 °F 1019.5 in WNW 11.1 mph 11.1 mph 41 % 0.0 in 515.0 W/m2 CLR
16:11 21.8 °F 7.6 °F 1019.2 in NNW 11.1 mph 11.1 mph 40 % 0.0 in 504.0 W/m2 CLR
16:16 21.9 °F 8.7 °F 1019.2 in NW 11.3 mph 11.3 mph 43 % 0.0 in 483.0 W/m2 CLR
16:21 21.8 °F 8.0 °F 1019.2 in North 11.3 mph 11.3 mph 41 % 0.0 in 476.0 W/m2 CLR
16:26 21.8 °F 9.1 °F 1019.2 in Calm     44 % 0.0 in 466.0 W/m2 CLR
16:31 22.1 °F 7.8 °F 1019.2 in NW 11.1 mph 11.1 mph 40 % 0.0 in 452.0 W/m2 CLR
16:36 22.1 °F 8.9 °F 1019.2 in NW 5.6 mph 5.6 mph 43 % 0.0 in 438.0 W/m2 CLR
16:41 22.2 °F 8.7 °F 1019.2 in NNW 9.7 mph 9.7 mph 42 % 0.0 in 418.0 W/m2 CLR
16:46 22.1 °F 8.2 °F 1018.8 in Calm     41 % 0.0 in 399.0 W/m2 CLR
16:51 22.1 °F 7.9 °F 1018.8 in WNW 13.0 mph 13.0 mph 40 % 0.0 in 390.0 W/m2 CLR
16:56 22.0 °F 7.8 °F 1018.8 in WNW 11.1 mph 11.1 mph 40 % 0.0 in 378.0 W/m2 CLR
17:01 22.1 °F 7.9 °F 1018.8 in WNW 4.8 mph 4.8 mph 40 % 0.0 in 373.0 W/m2 CLR
17:06 22.3 °F 8.7 °F 1018.8 in NW 3.7 mph 3.7 mph 42 % 0.0 in 360.0 W/m2 CLR
17:11 22.2 °F 7.6 °F 1018.8 in West 5.6 mph 5.6 mph 39 % 0.0 in 315.0 W/m2 CLR
17:16 22.2 °F 7.9 °F 1018.8 in WNW 5.6 mph 5.6 mph 40 % 0.0 in 285.0 W/m2 CLR
17:17 22.2 °F 7.9 °F 1018.8 in WNW 5.6 mph 5.6 mph 40 % 0.0 in 292.0 W/m2 CLR
17:22 22.2 °F 8.3 °F 1018.8 in WNW 5.6 mph 5.6 mph 41 % 0.0 in 264.0 W/m2 CLR
17:27 22.1 °F 8.6 °F 1018.8 in NW 3.7 mph 3.7 mph 42 % 0.0 in 251.0 W/m2 CLR
17:32 21.9 °F 7.7 °F 1018.8 in NW 11.1 mph 11.1 mph 40 % 0.0 in 223.0 W/m2 CLR
17:37 21.7 °F 8.9 °F 1018.5 in WNW 7.4 mph 7.4 mph 44 % 0.0 in 221.0 W/m2 CLR
17:42 21.7 °F 8.2 °F 1018.5 in WNW 7.4 mph 7.4 mph 42 % 0.0 in 213.0 W/m2 CLR
17:47 21.6 °F 8.5 °F 1018.8 in WNW 5.6 mph   43 % 0.0 in 181.0 W/m2 CLR
17:52 21.6 °F 9.2 °F 1018.8 in Calm   0.3 mph 45 % 0.0 in 155.0 W/m2 CLR
17:57 21.6 °F 8.8 °F 1018.8 in WNW 5.6 mph   44 % 0.0 in 127.0 W/m2 CLR
18:02 21.6 °F 8.1 °F 1018.8 in West 8.0 mph 8.0 mph 42 % 0.0 in 121.0 W/m2 CLR
18:07 21.4 °F 8.7 °F 1018.8 in WNW 8.0 mph 8.0 mph 44 % 0.0 in 105.0 W/m2 CLR
18:12 21.2 °F 7.4 °F 1018.8 in WNW 7.4 mph 7.4 mph 41 % 0.0 in 93.0 W/m2 CLR
18:17 21.0 °F 7.6 °F 1018.8 in WNW 7.4 mph 7.4 mph 42 % 0.0 in 93.0 W/m2 CLR
18:22 20.8 °F 7.8 °F 1018.8 in WNW 6.4 mph 6.6 mph 43 % 0.0 in 83.0 W/m2 CLR
18:27 20.7 °F 8.0 °F 1018.8 in WNW 8.0 mph 8.0 mph 44 % 0.0 in 72.0 W/m2 FEW
18:32 20.7 °F 7.7 °F 1018.8 in West 9.7 mph 9.7 mph 43 % 0.0 in 62.0 W/m2 SCT
18:37 20.7 °F 8.0 °F 1018.8 in West 7.4 mph 7.4 mph 44 % 0.0 in 46.0 W/m2 SCT
18:42 20.6 °F 8.2 °F 1018.8 in WNW 5.6 mph 5.6 mph 45 % 0.0 in 37.0 W/m2 BKN
18:47 20.3 °F 7.7 °F 1018.8 in West 8.0 mph 8.0 mph 44 % 0.0 in 26.0 W/m2 BKN
18:52 20.0 °F 7.7 °F 1018.8 in WNW 8.0 mph 8.0 mph 45 % 0.0 in 19.0 W/m2 BKN
18:57 19.5 °F 8.2 °F 1019.2 in WNW 9.3 mph 9.3 mph 48 % 0.0 in 14.0 W/m2 BKN
19:02 19.0 °F 8.3 °F 1019.2 in WNW 7.4 mph 7.4 mph 50 % 0.0 in 9.0 W/m2 BKN
19:07 18.6 °F 8.3 °F 1019.2 in WNW 6.4 mph 6.4 mph 51 % 0.0 in 5.0 W/m2 OVC
19:12 18.3 °F 8.0 °F 1019.2 in WNW 5.6 mph 5.6 mph 51 % 0.0 in 0.0 W/m2 OVC
19:17 18.1 °F 8.3 °F 1019.2 in WNW 5.6 mph 5.6 mph 53 % 0.0 in 0.0 W/m2 OVC
19:22 17.8 °F 8.1 °F 1019.2 in WNW 5.6 mph 5.6 mph 53 % 0.0 in 0.0 W/m2 CLR
19:27 17.5 °F 8.3 °F 1019.2 in Calm     55 % 0.0 in 0.0 W/m2 CLR
19:32 17.3 °F 8.2 °F 1019.2 in Calm     55 % 0.0 in 0.0 W/m2 CLR
19:37 17.2 °F 8.4 °F 1019.2 in Calm     56 % 0.0 in 0.0 W/m2 CLR
19:42 16.8 °F 8.3 °F 1019.2 in Calm     57 % 0.0 in 0.0 W/m2 CLR
19:47 16.4 °F 8.4 °F 1019.2 in Calm     59 % 0.0 in 0.0 W/m2 CLR
19:52 16.1 °F 8.6 °F 1019.2 in WSW 3.2 mph 3.2 mph 61 % 0.0 in 0.0 W/m2 CLR
19:57 15.7 °F 8.4 °F 1019.2 in WSW 5.6 mph 5.6 mph 62 % 0.0 in 0.0 W/m2 CLR
20:03 15.3 °F 8.6 °F 1019.2 in Calm     64 % 0.0 in 0.0 W/m2 CLR
20:08 15.1 °F 8.3 °F 1019.2 in Calm     64 % 0.0 in 0.0 W/m2 CLR
20:13 14.9 °F 8.6 °F 1019.2 in Calm     66 % 0.0 in 0.0 W/m2 CLR
20:18 14.6 °F 8.6 °F 1019.2 in Calm     67 % 0.0 in 0.0 W/m2 CLR
20:23 14.3 °F 8.3 °F 1019.5 in Calm     67 % 0.0 in 0.0 W/m2 CLR
20:28 14.2 °F 8.3 °F 1019.5 in Calm     68 % 0.0 in 0.0 W/m2 CLR
20:33 13.9 °F 8.3 °F 1019.5 in Calm     69 % 0.0 in 0.0 W/m2 CLR
20:38 13.7 °F 8.3 °F 1019.5 in Calm     70 % 0.0 in 0.0 W/m2 CLR
20:43 13.5 °F 8.3 °F 1019.5 in Calm     71 % 0.0 in 0.0 W/m2 CLR
20:48 13.4 °F 8.2 °F 1019.5 in Calm     71 % 0.0 in 0.0 W/m2 CLR
20:53 13.3 °F 8.3 °F 1019.5 in Calm     72 % 0.0 in 0.0 W/m2 CLR
20:58 13.2 °F 8.2 °F 1019.9 in Calm     72 % 0.0 in 0.0 W/m2 CLR
21:03 13.0 °F 8.1 °F 1019.9 in Calm     72 % 0.0 in 0.0 W/m2 CLR
21:08 12.8 °F 8.1 °F 1019.9 in Calm     73 % 0.0 in 0.0 W/m2 CLR
21:13 12.5 °F 8.0 °F 1019.9 in Calm     74 % 0.0 in 0.0 W/m2 CLR
21:18 12.2 °F 7.9 °F 1019.9 in Calm     75 % 0.0 in 0.0 W/m2 CLR
21:23 11.9 °F 7.8 °F 1020.2 in Calm     76 % 0.0 in 0.0 W/m2 CLR
21:28 11.7 °F 7.8 °F 1020.2 in Calm     77 % 0.0 in 0.0 W/m2 CLR
21:33 11.6 °F 7.7 °F 1020.2 in Calm     77 % 0.0 in 0.0 W/m2 CLR
21:38 11.4 °F 7.7 °F 1020.2 in Calm     78 % 0.0 in 0.0 W/m2 CLR
21:43 11.2 °F 7.5 °F 1020.5 in Calm     78 % 0.0 in 0.0 W/m2 CLR
21:48 11.1 °F 7.6 °F 1020.5 in Calm     79 % 0.0 in 0.0 W/m2 CLR
21:53 11.0 °F 7.5 °F 1020.5 in Calm     79 % 0.0 in 0.0 W/m2 CLR
21:58 10.8 °F 7.3 °F 1020.5 in Calm     79 % 0.0 in 0.0 W/m2 CLR
22:03 10.7 °F 7.3 °F 1020.5 in Calm     80 % 0.0 in 0.0 W/m2 CLR
22:08 10.5 °F 7.2 °F 1020.5 in Calm     80 % 0.0 in 0.0 W/m2 CLR
22:13 10.4 °F 7.3 °F 1020.5 in Calm     81 % 0.0 in 0.0 W/m2 CLR
22:18 10.3 °F 7.2 °F 1020.5 in Calm     81 % 0.0 in 0.0 W/m2 CLR
22:23 10.2 °F 7.1 °F 1020.5 in Calm     81 % 0.0 in 0.0 W/m2 CLR
22:28 10.1 °F 7.0 °F 1020.5 in Calm     81 % 0.0 in 0.0 W/m2 CLR
22:33 10.0 °F 6.9 °F 1020.9 in Calm     81 % 0.0 in 0.0 W/m2 CLR
22:38 9.9 °F 6.8 °F 1020.9 in Calm     81 % 0.0 in 0.0 W/m2 CLR
22:43 9.7 °F 6.8 °F 1020.9 in Calm     82 % 0.0 in 0.0 W/m2 CLR
22:48 9.7 °F 6.7 °F 1020.9 in Calm     82 % 0.0 in 0.0 W/m2 CLR
22:53 9.7 °F 6.6 °F 1020.9 in Calm     81 % 0.0 in 0.0 W/m2 CLR
22:58 9.8 °F 6.7 °F 1020.9 in Calm     81 % 0.0 in 0.0 W/m2 CLR
23:03 9.9 °F 6.4 °F 1020.9 in Calm     79 % 0.0 in 0.0 W/m2 CLR
23:08 10.2 °F 6.3 °F 1020.9 in Calm     77 % 0.0 in 0.0 W/m2 CLR
23:13 10.2 °F 6.4 °F 1020.9 in Calm     77 % 0.0 in 0.0 W/m2 CLR
23:18 10.2 °F 6.4 °F 1020.9 in Calm     77 % 0.0 in 0.0 W/m2 CLR
23:23 10.1 °F 6.1 °F 1020.9 in Calm     76 % 0.0 in 0.0 W/m2 CLR
23:28 10.0 °F 5.9 °F 1020.9 in Calm     76 % 0.0 in 0.0 W/m2 CLR
23:33 9.9 °F 5.7 °F 1020.9 in Calm     75 % 0.0 in 0.0 W/m2 CLR
23:38 9.8 °F 5.6 °F 1020.9 in Calm     75 % 0.0 in 0.0 W/m2 CLR
23:43 9.7 °F 5.5 °F 1021.2 in Calm     75 % 0.0 in 0.0 W/m2 CLR
23:48 9.7 °F 5.4 °F 1021.2 in Calm     75 % 0.0 in 0.0 W/m2 CLR
23:53 9.5 °F 5.3 °F 1021.2 in Calm     75 % 0.0 in 0.0 W/m2 CLR
23:58 9.3 °F 5.3 °F 1021.2 in Calm     76 % 0.0 in 0.0 W/m2 CLR
Lo Temps de Massalio
Compliments of Weather Underground - 1.25 mb